Archival Weather

Greater Kankakee

Kankakee, Illinois (KIKK)

Report from: Tuesday, June 6, 2023 5:15 PM CDT
Current time: Tuesday, July 16, 2024 9:55 AM CDT

Current weather – Weather history – Daily summaries
Weather forecast

Temperature22.2°C (72.0°F)
Dew point13.5°C (56.3°F)
Winds 10 kts (5.1 m/s, 11.5 mph) Northeast (50°)
Visibility10 mi. (16.1 km)
Clouds Sky clear
Altimeter29.91 in.Hg (1013 mB)
Relative humidity58 %
Density altitude1,067 ft. (325 m)
Remarks Fully automated report
Automated weather observing station with precipitation discriminator
Present weather sensor not operating
Flight conditions Visual Meteorological Conditions
Raw dataKIKK 062215Z AUTO 05010KT 10SM CLR 22/14 A2991 RMK AO2 T02220135 PWINO
An error has occurred. This application may no longer respond until reloaded. Reload 🗙